sensor_id;sensor_type;location;lat;lon;timestamp;temperature;humidity
75442;DHT22;64019;48.312;14.226;2023-09-08T00:01:15;20.30;99.90
75442;DHT22;64019;48.312;14.226;2023-09-08T00:03:41;20.20;99.90
75442;DHT22;64019;48.312;14.226;2023-09-08T00:06:06;20.20;99.90
75442;DHT22;64019;48.312;14.226;2023-09-08T00:08:32;20.10;99.90
75442;DHT22;64019;48.312;14.226;2023-09-08T00:10:58;20.10;99.90
75442;DHT22;64019;48.312;14.226;2023-09-08T00:13:23;20.10;99.90
75442;DHT22;64019;48.312;14.226;2023-09-08T00:15:49;20.10;99.90
75442;DHT22;64019;48.312;14.226;2023-09-08T00:18:15;20.00;99.90
75442;DHT22;64019;48.312;14.226;2023-09-08T00:20:41;20.00;99.90
75442;DHT22;64019;48.312;14.226;2023-09-08T00:23:07;19.90;99.90
75442;DHT22;64019;48.312;14.226;2023-09-08T00:25:33;19.90;99.90
75442;DHT22;64019;48.312;14.226;2023-09-08T00:28:00;19.90;99.90
75442;DHT22;64019;48.312;14.226;2023-09-08T00:30:25;19.90;99.90
75442;DHT22;64019;48.312;14.226;2023-09-08T00:32:51;19.90;99.90
75442;DHT22;64019;48.312;14.226;2023-09-08T00:35:17;19.90;99.90
75442;DHT22;64019;48.312;14.226;2023-09-08T00:37:43;19.80;99.90
75442;DHT22;64019;48.312;14.226;2023-09-08T00:40:10;19.70;99.90
75442;DHT22;64019;48.312;14.226;2023-09-08T00:42:35;19.70;99.90
75442;DHT22;64019;48.312;14.226;2023-09-08T00:45:02;19.70;99.90
75442;DHT22;64019;48.312;14.226;2023-09-08T00:47:29;19.70;99.90
75442;DHT22;64019;48.312;14.226;2023-09-08T00:49:54;19.60;99.90
75442;DHT22;64019;48.312;14.226;2023-09-08T00:52:20;19.60;99.90
75442;DHT22;64019;48.312;14.226;2023-09-08T00:54:46;19.50;99.90
75442;DHT22;64019;48.312;14.226;2023-09-08T00:57:11;19.40;99.90
75442;DHT22;64019;48.312;14.226;2023-09-08T00:59:37;19.40;99.90
75442;DHT22;64019;48.312;14.226;2023-09-08T01:02:04;19.30;99.90
75442;DHT22;64019;48.312;14.226;2023-09-08T01:04:30;19.20;99.90
75442;DHT22;64019;48.312;14.226;2023-09-08T01:06:56;19.00;99.90
75442;DHT22;64019;48.312;14.226;2023-09-08T01:09:23;19.00;99.90
75442;DHT22;64019;48.312;14.226;2023-09-08T01:11:50;18.90;99.90
75442;DHT22;64019;48.312;14.226;2023-09-08T01:14:18;18.70;99.90
75442;DHT22;64019;48.312;14.226;2023-09-08T01:16:45;18.60;99.90
75442;DHT22;64019;48.312;14.226;2023-09-08T01:19:13;18.60;99.90
75442;DHT22;64019;48.312;14.226;2023-09-08T01:27:18;18.40;99.90
75442;DHT22;64019;48.312;14.226;2023-09-08T01:29:45;18.30;99.90
75442;DHT22;64019;48.312;14.226;2023-09-08T01:32:12;18.20;99.90
75442;DHT22;64019;48.312;14.226;2023-09-08T01:34:38;18.20;99.90
75442;DHT22;64019;48.312;14.226;2023-09-08T01:37:07;18.20;99.90
75442;DHT22;64019;48.312;14.226;2023-09-08T01:39:32;18.10;99.90
75442;DHT22;64019;48.312;14.226;2023-09-08T01:41:58;18.00;99.90
75442;DHT22;64019;48.312;14.226;2023-09-08T01:44:24;18.00;99.90
75442;DHT22;64019;48.312;14.226;2023-09-08T01:46:49;17.90;99.90
75442;DHT22;64019;48.312;14.226;2023-09-08T01:49:16;17.90;99.90
75442;DHT22;64019;48.312;14.226;2023-09-08T01:51:42;17.80;99.90
75442;DHT22;64019;48.312;14.226;2023-09-08T01:54:08;17.80;99.90
75442;DHT22;64019;48.312;14.226;2023-09-08T01:56:35;17.80;99.90
75442;DHT22;64019;48.312;14.226;2023-09-08T01:59:00;17.70;99.90
75442;DHT22;64019;48.312;14.226;2023-09-08T02:01:26;17.80;99.90
75442;DHT22;64019;48.312;14.226;2023-09-08T02:03:51;17.70;99.90
75442;DHT22;64019;48.312;14.226;2023-09-08T02:06:17;17.60;99.90
75442;DHT22;64019;48.312;14.226;2023-09-08T02:08:43;17.60;99.90
75442;DHT22;64019;48.312;14.226;2023-09-08T02:11:08;17.60;99.90
75442;DHT22;64019;48.312;14.226;2023-09-08T02:13:34;17.60;99.90
75442;DHT22;64019;48.312;14.226;2023-09-08T02:16:00;17.80;99.90
75442;DHT22;64019;48.312;14.226;2023-09-08T02:18:26;17.80;99.90
75442;DHT22;64019;48.312;14.226;2023-09-08T02:20:51;17.80;99.90
75442;DHT22;64019;48.312;14.226;2023-09-08T02:23:17;18.00;99.90
75442;DHT22;64019;48.312;14.226;2023-09-08T02:25:42;18.10;99.90
75442;DHT22;64019;48.312;14.226;2023-09-08T02:28:08;18.30;99.90
75442;DHT22;64019;48.312;14.226;2023-09-08T02:30:34;18.40;99.90
75442;DHT22;64019;48.312;14.226;2023-09-08T02:32:59;18.50;99.90
75442;DHT22;64019;48.312;14.226;2023-09-08T02:35:25;18.50;99.90
75442;DHT22;64019;48.312;14.226;2023-09-08T02:37:51;18.50;99.90
75442;DHT22;64019;48.312;14.226;2023-09-08T02:40:16;18.40;99.90
75442;DHT22;64019;48.312;14.226;2023-09-08T02:42:42;18.40;99.90
75442;DHT22;64019;48.312;14.226;2023-09-08T02:45:09;18.30;99.90
75442;DHT22;64019;48.312;14.226;2023-09-08T02:47:35;18.40;99.90
75442;DHT22;64019;48.312;14.226;2023-09-08T02:50:01;18.40;99.90
75442;DHT22;64019;48.312;14.226;2023-09-08T02:52:27;18.40;99.90
75442;DHT22;64019;48.312;14.226;2023-09-08T02:54:53;18.40;99.90
75442;DHT22;64019;48.312;14.226;2023-09-08T02:57:18;18.40;99.90
75442;DHT22;64019;48.312;14.226;2023-09-08T02:59:49;18.40;99.90
75442;DHT22;64019;48.312;14.226;2023-09-08T03:02:15;18.40;99.90
75442;DHT22;64019;48.312;14.226;2023-09-08T03:04:41;18.30;99.90
75442;DHT22;64019;48.312;14.226;2023-09-08T03:07:06;18.30;99.90
75442;DHT22;64019;48.312;14.226;2023-09-08T03:09:33;18.40;99.90
75442;DHT22;64019;48.312;14.226;2023-09-08T03:11:59;18.50;99.90
75442;DHT22;64019;48.312;14.226;2023-09-08T03:14:25;18.50;99.90
75442;DHT22;64019;48.312;14.226;2023-09-08T03:16:51;18.50;99.90
75442;DHT22;64019;48.312;14.226;2023-09-08T03:19:16;18.50;99.90
75442;DHT22;64019;48.312;14.226;2023-09-08T03:21:42;18.50;99.90
75442;DHT22;64019;48.312;14.226;2023-09-08T03:24:07;18.40;99.90
75442;DHT22;64019;48.312;14.226;2023-09-08T03:26:33;18.30;99.90
75442;DHT22;64019;48.312;14.226;2023-09-08T03:28:59;18.20;99.90
75442;DHT22;64019;48.312;14.226;2023-09-08T03:31:24;18.10;99.90
75442;DHT22;64019;48.312;14.226;2023-09-08T03:33:51;18.00;99.90
75442;DHT22;64019;48.312;14.226;2023-09-08T03:36:16;17.90;99.90
75442;DHT22;64019;48.312;14.226;2023-09-08T03:38:42;17.90;99.90
75442;DHT22;64019;48.312;14.226;2023-09-08T03:41:07;17.80;99.90
75442;DHT22;64019;48.312;14.226;2023-09-08T03:43:33;17.80;99.90
75442;DHT22;64019;48.312;14.226;2023-09-08T03:45:59;17.60;99.90
75442;DHT22;64019;48.312;14.226;2023-09-08T03:48:24;17.60;99.90
75442;DHT22;64019;48.312;14.226;2023-09-08T03:50:50;17.50;99.90
75442;DHT22;64019;48.312;14.226;2023-09-08T03:53:16;17.40;99.90
75442;DHT22;64019;48.312;14.226;2023-09-08T03:55:41;17.30;99.90
75442;DHT22;64019;48.312;14.226;2023-09-08T03:58:07;17.10;99.90
75442;DHT22;64019;48.312;14.226;2023-09-08T04:00:33;17.00;99.90
75442;DHT22;64019;48.312;14.226;2023-09-08T04:02:58;16.90;99.90
75442;DHT22;64019;48.312;14.226;2023-09-08T04:05:24;16.80;99.90
75442;DHT22;64019;48.312;14.226;2023-09-08T04:07:49;16.80;99.90
75442;DHT22;64019;48.312;14.226;2023-09-08T04:10:15;16.60;99.90
75442;DHT22;64019;48.312;14.226;2023-09-08T04:12:41;16.60;99.90
75442;DHT22;64019;48.312;14.226;2023-09-08T04:21:51;16.20;99.90
75442;DHT22;64019;48.312;14.226;2023-09-08T04:24:16;16.10;99.90
75442;DHT22;64019;48.312;14.226;2023-09-08T04:26:42;16.10;99.90
75442;DHT22;64019;48.312;14.226;2023-09-08T04:29:07;16.00;99.90
75442;DHT22;64019;48.312;14.226;2023-09-08T04:31:33;16.00;99.90
75442;DHT22;64019;48.312;14.226;2023-09-08T04:33:59;15.80;99.90
75442;DHT22;64019;48.312;14.226;2023-09-08T04:36:24;15.80;99.90
75442;DHT22;64019;48.312;14.226;2023-09-08T04:38:50;15.70;99.90
75442;DHT22;64019;48.312;14.226;2023-09-08T04:41:15;15.70;99.90
75442;DHT22;64019;48.312;14.226;2023-09-08T04:43:41;15.60;99.90
75442;DHT22;64019;48.312;14.226;2023-09-08T04:46:07;15.60;99.90
75442;DHT22;64019;48.312;14.226;2023-09-08T04:48:34;15.50;99.90
75442;DHT22;64019;48.312;14.226;2023-09-08T04:50:59;15.50;99.90
75442;DHT22;64019;48.312;14.226;2023-09-08T04:53:25;15.40;99.90
75442;DHT22;64019;48.312;14.226;2023-09-08T04:55:51;15.40;99.90
75442;DHT22;64019;48.312;14.226;2023-09-08T04:58:17;15.40;99.90
75442;DHT22;64019;48.312;14.226;2023-09-08T05:00:43;15.40;99.90
75442;DHT22;64019;48.312;14.226;2023-09-08T05:03:08;15.40;99.90
75442;DHT22;64019;48.312;14.226;2023-09-08T05:05:34;15.30;99.90
75442;DHT22;64019;48.312;14.226;2023-09-08T05:08:00;15.30;99.90
75442;DHT22;64019;48.312;14.226;2023-09-08T05:10:25;15.30;99.90
75442;DHT22;64019;48.312;14.226;2023-09-08T05:12:51;15.40;99.90
75442;DHT22;64019;48.312;14.226;2023-09-08T05:15:17;15.40;99.90
75442;DHT22;64019;48.312;14.226;2023-09-08T05:17:46;15.40;99.90
75442;DHT22;64019;48.312;14.226;2023-09-08T05:20:12;15.50;99.90
75442;DHT22;64019;48.312;14.226;2023-09-08T05:22:37;15.40;99.90
75442;DHT22;64019;48.312;14.226;2023-09-08T05:25:04;15.50;99.90
75442;DHT22;64019;48.312;14.226;2023-09-08T05:27:29;15.50;99.90
75442;DHT22;64019;48.312;14.226;2023-09-08T05:29:55;15.50;99.90
75442;DHT22;64019;48.312;14.226;2023-09-08T05:32:21;15.50;99.90
75442;DHT22;64019;48.312;14.226;2023-09-08T05:34:46;15.60;99.90
75442;DHT22;64019;48.312;14.226;2023-09-08T05:37:12;15.60;99.90
75442;DHT22;64019;48.312;14.226;2023-09-08T05:39:37;15.70;99.90
75442;DHT22;64019;48.312;14.226;2023-09-08T05:42:03;15.70;99.90
75442;DHT22;64019;48.312;14.226;2023-09-08T05:44:29;15.80;99.90
75442;DHT22;64019;48.312;14.226;2023-09-08T05:46:55;15.90;99.90
75442;DHT22;64019;48.312;14.226;2023-09-08T05:49:20;16.00;99.90
75442;DHT22;64019;48.312;14.226;2023-09-08T05:51:46;16.00;99.90
75442;DHT22;64019;48.312;14.226;2023-09-08T05:54:12;16.00;99.90
75442;DHT22;64019;48.312;14.226;2023-09-08T05:56:38;16.10;99.90
75442;DHT22;64019;48.312;14.226;2023-09-08T05:59:04;16.10;99.90
75442;DHT22;64019;48.312;14.226;2023-09-08T06:01:30;16.20;99.90
75442;DHT22;64019;48.312;14.226;2023-09-08T06:03:56;16.30;99.90
75442;DHT22;64019;48.312;14.226;2023-09-08T06:06:22;16.30;99.90
75442;DHT22;64019;48.312;14.226;2023-09-08T06:08:48;16.40;99.90
75442;DHT22;64019;48.312;14.226;2023-09-08T06:11:15;16.50;99.90
75442;DHT22;64019;48.312;14.226;2023-09-08T06:13:40;16.50;99.90
75442;DHT22;64019;48.312;14.226;2023-09-08T06:16:07;16.60;99.90
75442;DHT22;64019;48.312;14.226;2023-09-08T06:29:02;16.70;99.90
75442;DHT22;64019;48.312;14.226;2023-09-08T06:38:21;16.90;99.90
75442;DHT22;64019;48.312;14.226;2023-09-08T06:40:47;16.90;99.90
75442;DHT22;64019;48.312;14.226;2023-09-08T06:43:13;17.00;99.90
75442;DHT22;64019;48.312;14.226;2023-09-08T06:45:39;17.00;99.90
75442;DHT22;64019;48.312;14.226;2023-09-08T06:48:07;17.10;99.90
75442;DHT22;64019;48.312;14.226;2023-09-08T06:50:34;17.20;99.90
75442;DHT22;64019;48.312;14.226;2023-09-08T06:53:00;17.30;99.90
75442;DHT22;64019;48.312;14.226;2023-09-08T06:55:26;17.40;99.90
75442;DHT22;64019;48.312;14.226;2023-09-08T06:57:51;17.40;99.90
75442;DHT22;64019;48.312;14.226;2023-09-08T07:04:01;17.50;99.90
75442;DHT22;64019;48.312;14.226;2023-09-08T07:06:56;17.60;99.90
75442;DHT22;64019;48.312;14.226;2023-09-08T07:09:36;17.70;99.90
75442;DHT22;64019;48.312;14.226;2023-09-08T07:12:13;17.70;99.90
75442;DHT22;64019;48.312;14.226;2023-09-08T07:14:38;17.80;99.90
75442;DHT22;64019;48.312;14.226;2023-09-08T07:17:04;17.90;99.90
75442;DHT22;64019;48.312;14.226;2023-09-08T07:19:29;18.00;99.90
75442;DHT22;64019;48.312;14.226;2023-09-08T07:21:55;18.10;99.90
75442;DHT22;64019;48.312;14.226;2023-09-08T07:24:21;18.10;99.90
75442;DHT22;64019;48.312;14.226;2023-09-08T07:26:47;18.20;99.90
75442;DHT22;64019;48.312;14.226;2023-09-08T07:29:12;18.30;99.90
75442;DHT22;64019;48.312;14.226;2023-09-08T07:31:39;18.30;99.90
75442;DHT22;64019;48.312;14.226;2023-09-08T07:34:04;18.30;99.90
75442;DHT22;64019;48.312;14.226;2023-09-08T07:36:30;18.20;99.90
75442;DHT22;64019;48.312;14.226;2023-09-08T07:38:56;18.30;99.90
75442;DHT22;64019;48.312;14.226;2023-09-08T07:41:21;18.40;99.90
75442;DHT22;64019;48.312;14.226;2023-09-08T07:43:47;18.60;99.90
75442;DHT22;64019;48.312;14.226;2023-09-08T07:46:12;18.70;99.90
75442;DHT22;64019;48.312;14.226;2023-09-08T07:48:38;18.80;99.90
75442;DHT22;64019;48.312;14.226;2023-09-08T07:51:04;18.90;99.90
75442;DHT22;64019;48.312;14.226;2023-09-08T07:53:29;18.90;99.90
75442;DHT22;64019;48.312;14.226;2023-09-08T07:55:55;18.90;99.90
75442;DHT22;64019;48.312;14.226;2023-09-08T07:58:22;19.00;99.90
75442;DHT22;64019;48.312;14.226;2023-09-08T08:00:48;19.10;99.90
75442;DHT22;64019;48.312;14.226;2023-09-08T08:03:13;19.20;99.90
75442;DHT22;64019;48.312;14.226;2023-09-08T08:05:39;19.20;99.90
75442;DHT22;64019;48.312;14.226;2023-09-08T08:08:05;19.30;99.90
75442;DHT22;64019;48.312;14.226;2023-09-08T08:10:30;19.30;99.90
75442;DHT22;64019;48.312;14.226;2023-09-08T08:12:56;19.50;99.90
75442;DHT22;64019;48.312;14.226;2023-09-08T08:15:23;19.60;99.90
75442;DHT22;64019;48.312;14.226;2023-09-08T08:17:59;19.70;99.90
75442;DHT22;64019;48.312;14.226;2023-09-08T08:20:25;19.80;99.90
75442;DHT22;64019;48.312;14.226;2023-09-08T08:22:50;19.90;99.90
75442;DHT22;64019;48.312;14.226;2023-09-08T08:25:16;19.90;99.90
75442;DHT22;64019;48.312;14.226;2023-09-08T08:27:41;20.00;99.90
75442;DHT22;64019;48.312;14.226;2023-09-08T08:30:09;20.10;99.90
75442;DHT22;64019;48.312;14.226;2023-09-08T08:32:36;20.20;99.90
75442;DHT22;64019;48.312;14.226;2023-09-08T08:35:02;20.30;99.90
75442;DHT22;64019;48.312;14.226;2023-09-08T08:37:30;20.30;99.90
75442;DHT22;64019;48.312;14.226;2023-09-08T08:39:55;20.40;99.90
75442;DHT22;64019;48.312;14.226;2023-09-08T08:42:21;20.50;99.90
75442;DHT22;64019;48.312;14.226;2023-09-08T08:44:48;20.60;99.90
75442;DHT22;64019;48.312;14.226;2023-09-08T08:47:15;20.70;99.90
75442;DHT22;64019;48.312;14.226;2023-09-08T08:49:44;20.90;99.90
75442;DHT22;64019;48.312;14.226;2023-09-08T08:52:13;20.90;99.90
75442;DHT22;64019;48.312;14.226;2023-09-08T08:54:39;20.90;99.90
75442;DHT22;64019;48.312;14.226;2023-09-08T08:57:06;20.90;99.90
75442;DHT22;64019;48.312;14.226;2023-09-08T08:59:32;20.90;99.90
75442;DHT22;64019;48.312;14.226;2023-09-08T09:01:58;21.10;99.90
75442;DHT22;64019;48.312;14.226;2023-09-08T09:04:25;21.20;99.90
75442;DHT22;64019;48.312;14.226;2023-09-08T09:06:54;21.20;99.90
75442;DHT22;64019;48.312;14.226;2023-09-08T09:10:16;21.40;99.90
75442;DHT22;64019;48.312;14.226;2023-09-08T09:12:59;21.40;99.90
75442;DHT22;64019;48.312;14.226;2023-09-08T09:15:31;21.40;99.90
75442;DHT22;64019;48.312;14.226;2023-09-08T09:18:13;21.50;99.90
75442;DHT22;64019;48.312;14.226;2023-09-08T09:20:58;21.60;99.90
75442;DHT22;64019;48.312;14.226;2023-09-08T09:23:39;21.60;99.90
75442;DHT22;64019;48.312;14.226;2023-09-08T09:26:10;21.70;99.90
75442;DHT22;64019;48.312;14.226;2023-09-08T09:28:52;21.70;99.90
75442;DHT22;64019;48.312;14.226;2023-09-08T09:31:23;21.80;99.90
75442;DHT22;64019;48.312;14.226;2023-09-08T09:34:05;21.80;99.90
75442;DHT22;64019;48.312;14.226;2023-09-08T09:36:34;21.90;99.90
75442;DHT22;64019;48.312;14.226;2023-09-08T09:39:06;22.00;99.90
75442;DHT22;64019;48.312;14.226;2023-09-08T09:41:32;22.00;99.90
75442;DHT22;64019;48.312;14.226;2023-09-08T09:43:59;22.10;99.90
75442;DHT22;64019;48.312;14.226;2023-09-08T09:46:28;22.20;99.90
75442;DHT22;64019;48.312;14.226;2023-09-08T09:48:56;22.30;99.90
75442;DHT22;64019;48.312;14.226;2023-09-08T09:51:23;22.40;99.90
75442;DHT22;64019;48.312;14.226;2023-09-08T09:53:51;22.30;99.90
75442;DHT22;64019;48.312;14.226;2023-09-08T09:56:17;22.40;99.90
75442;DHT22;64019;48.312;14.226;2023-09-08T09:58:44;22.50;99.90
75442;DHT22;64019;48.312;14.226;2023-09-08T10:01:10;22.50;99.90
75442;DHT22;64019;48.312;14.226;2023-09-08T10:03:39;22.50;99.90
75442;DHT22;64019;48.312;14.226;2023-09-08T10:06:05;22.50;99.90
75442;DHT22;64019;48.312;14.226;2023-09-08T10:08:33;22.60;99.90
75442;DHT22;64019;48.312;14.226;2023-09-08T10:11:06;22.60;99.90
75442;DHT22;64019;48.312;14.226;2023-09-08T10:13:39;22.70;99.90
75442;DHT22;64019;48.312;14.226;2023-09-08T10:16:08;22.70;99.90
75442;DHT22;64019;48.312;14.226;2023-09-08T10:18:35;22.90;99.90
75442;DHT22;64019;48.312;14.226;2023-09-08T10:21:04;22.90;99.90
75442;DHT22;64019;48.312;14.226;2023-09-08T10:23:56;23.00;99.90
75442;DHT22;64019;48.312;14.226;2023-09-08T10:29:48;23.00;99.90
75442;DHT22;64019;48.312;14.226;2023-09-08T10:32:17;23.10;99.90
75442;DHT22;64019;48.312;14.226;2023-09-08T10:34:49;23.10;99.90
75442;DHT22;64019;48.312;14.226;2023-09-08T10:37:22;23.10;99.90
75442;DHT22;64019;48.312;14.226;2023-09-08T10:39:51;23.20;99.90
75442;DHT22;64019;48.312;14.226;2023-09-08T10:47:41;23.30;99.90
75442;DHT22;64019;48.312;14.226;2023-09-08T10:50:22;23.30;99.90
75442;DHT22;64019;48.312;14.226;2023-09-08T10:53:12;23.40;99.90
75442;DHT22;64019;48.312;14.226;2023-09-08T10:55:42;23.40;99.90
75442;DHT22;64019;48.312;14.226;2023-09-08T10:58:10;23.50;99.90
75442;DHT22;64019;48.312;14.226;2023-09-08T11:00:46;23.60;99.90
75442;DHT22;64019;48.312;14.226;2023-09-08T11:03:12;23.70;99.90
75442;DHT22;64019;48.312;14.226;2023-09-08T11:05:39;23.80;99.90
75442;DHT22;64019;48.312;14.226;2023-09-08T11:08:05;23.90;99.90
75442;DHT22;64019;48.312;14.226;2023-09-08T11:10:30;23.90;99.90
75442;DHT22;64019;48.312;14.226;2023-09-08T11:12:57;23.90;99.90
75442;DHT22;64019;48.312;14.226;2023-09-08T11:15:25;23.90;99.90
75442;DHT22;64019;48.312;14.226;2023-09-08T11:17:50;24.00;99.90
75442;DHT22;64019;48.312;14.226;2023-09-08T11:20:26;24.00;99.90
75442;DHT22;64019;48.312;14.226;2023-09-08T11:22:52;24.00;99.90
75442;DHT22;64019;48.312;14.226;2023-09-08T11:25:18;24.10;99.90
75442;DHT22;64019;48.312;14.226;2023-09-08T11:27:45;24.10;99.90
75442;DHT22;64019;48.312;14.226;2023-09-08T11:30:12;24.20;99.90
75442;DHT22;64019;48.312;14.226;2023-09-08T11:32:39;24.20;99.90
75442;DHT22;64019;48.312;14.226;2023-09-08T11:35:06;24.30;99.90
75442;DHT22;64019;48.312;14.226;2023-09-08T11:37:39;24.30;99.90
75442;DHT22;64019;48.312;14.226;2023-09-08T11:40:08;24.20;99.90
75442;DHT22;64019;48.312;14.226;2023-09-08T11:42:41;24.20;99.90
75442;DHT22;64019;48.312;14.226;2023-09-08T11:45:18;24.30;99.90
75442;DHT22;64019;48.312;14.226;2023-09-08T11:47:46;24.30;99.90
75442;DHT22;64019;48.312;14.226;2023-09-08T11:50:13;24.30;99.90
75442;DHT22;64019;48.312;14.226;2023-09-08T11:52:47;24.50;99.90
75442;DHT22;64019;48.312;14.226;2023-09-08T11:55:14;24.50;99.90
75442;DHT22;64019;48.312;14.226;2023-09-08T11:57:41;24.50;99.90
75442;DHT22;64019;48.312;14.226;2023-09-08T12:00:07;24.50;99.90
75442;DHT22;64019;48.312;14.226;2023-09-08T12:02:37;24.60;99.90
75442;DHT22;64019;48.312;14.226;2023-09-08T12:05:04;24.70;99.90
75442;DHT22;64019;48.312;14.226;2023-09-08T12:07:29;24.80;99.90
75442;DHT22;64019;48.312;14.226;2023-09-08T12:09:55;24.80;99.90
75442;DHT22;64019;48.312;14.226;2023-09-08T12:12:21;24.80;99.90
75442;DHT22;64019;48.312;14.226;2023-09-08T12:14:47;24.70;99.90
75442;DHT22;64019;48.312;14.226;2023-09-08T12:17:12;24.80;99.90
75442;DHT22;64019;48.312;14.226;2023-09-08T12:19:42;24.90;99.90
75442;DHT22;64019;48.312;14.226;2023-09-08T12:22:08;24.90;99.90
75442;DHT22;64019;48.312;14.226;2023-09-08T12:27:14;25.00;99.90
75442;DHT22;64019;48.312;14.226;2023-09-08T12:29:50;25.00;99.90
75442;DHT22;64019;48.312;14.226;2023-09-08T12:32:16;25.10;99.90
75442;DHT22;64019;48.312;14.226;2023-09-08T12:34:43;25.10;99.90
75442;DHT22;64019;48.312;14.226;2023-09-08T12:37:10;25.10;99.90
75442;DHT22;64019;48.312;14.226;2023-09-08T12:39:38;25.10;99.90
75442;DHT22;64019;48.312;14.226;2023-09-08T12:42:04;25.20;99.90
75442;DHT22;64019;48.312;14.226;2023-09-08T12:44:30;25.20;99.90
75442;DHT22;64019;48.312;14.226;2023-09-08T12:46:56;25.30;99.90
75442;DHT22;64019;48.312;14.226;2023-09-08T12:49:21;25.30;99.90
75442;DHT22;64019;48.312;14.226;2023-09-08T12:51:47;25.20;99.90
75442;DHT22;64019;48.312;14.226;2023-09-08T12:54:12;25.20;99.90
75442;DHT22;64019;48.312;14.226;2023-09-08T12:56:38;25.20;99.90
75442;DHT22;64019;48.312;14.226;2023-09-08T12:59:04;25.20;99.90
75442;DHT22;64019;48.312;14.226;2023-09-08T13:01:29;25.20;99.90
75442;DHT22;64019;48.312;14.226;2023-09-08T13:03:55;25.30;99.90
75442;DHT22;64019;48.312;14.226;2023-09-08T13:06:21;25.30;99.90
75442;DHT22;64019;48.312;14.226;2023-09-08T13:08:46;25.40;99.90
75442;DHT22;64019;48.312;14.226;2023-09-08T13:11:12;25.40;99.90
75442;DHT22;64019;48.312;14.226;2023-09-08T13:13:38;25.40;99.90
75442;DHT22;64019;48.312;14.226;2023-09-08T13:16:03;25.50;99.90
75442;DHT22;64019;48.312;14.226;2023-09-08T13:18:29;25.50;99.90
75442;DHT22;64019;48.312;14.226;2023-09-08T13:21:00;25.50;99.90
75442;DHT22;64019;48.312;14.226;2023-09-08T13:23:26;25.50;99.90
75442;DHT22;64019;48.312;14.226;2023-09-08T13:25:52;25.50;99.90
75442;DHT22;64019;48.312;14.226;2023-09-08T13:28:17;25.50;99.90
75442;DHT22;64019;48.312;14.226;2023-09-08T13:34:25;25.50;99.90
75442;DHT22;64019;48.312;14.226;2023-09-08T13:37:01;25.60;99.90
75442;DHT22;64019;48.312;14.226;2023-09-08T13:42:35;25.60;99.90
75442;DHT22;64019;48.312;14.226;2023-09-08T13:45:26;25.60;99.90
75442;DHT22;64019;48.312;14.226;2023-09-08T13:47:51;25.60;99.90
75442;DHT22;64019;48.312;14.226;2023-09-08T13:50:17;25.70;99.90
75442;DHT22;64019;48.312;14.226;2023-09-08T13:52:43;25.70;99.90
75442;DHT22;64019;48.312;14.226;2023-09-08T13:55:09;25.70;99.90
75442;DHT22;64019;48.312;14.226;2023-09-08T13:57:36;25.80;99.90
75442;DHT22;64019;48.312;14.226;2023-09-08T14:00:03;25.80;99.90
75442;DHT22;64019;48.312;14.226;2023-09-08T14:02:28;25.70;99.90
75442;DHT22;64019;48.312;14.226;2023-09-08T14:04:54;25.80;99.90
75442;DHT22;64019;48.312;14.226;2023-09-08T14:07:44;25.70;99.90
75442;DHT22;64019;48.312;14.226;2023-09-08T14:10:56;25.80;99.90
75442;DHT22;64019;48.312;14.226;2023-09-08T14:13:42;25.80;99.90
75442;DHT22;64019;48.312;14.226;2023-09-08T14:16:08;25.90;99.90
75442;DHT22;64019;48.312;14.226;2023-09-08T14:18:34;25.90;99.90
75442;DHT22;64019;48.312;14.226;2023-09-08T14:21:00;25.90;99.90
75442;DHT22;64019;48.312;14.226;2023-09-08T14:23:26;25.90;99.00
75442;DHT22;64019;48.312;14.226;2023-09-08T14:25:51;26.00;99.10
75442;DHT22;64019;48.312;14.226;2023-09-08T14:28:17;26.00;99.90
75442;DHT22;64019;48.312;14.226;2023-09-08T14:30:43;26.00;99.90
75442;DHT22;64019;48.312;14.226;2023-09-08T14:33:10;26.00;99.90
75442;DHT22;64019;48.312;14.226;2023-09-08T14:35:35;26.00;98.30
75442;DHT22;64019;48.312;14.226;2023-09-08T14:38:01;26.10;97.60
75442;DHT22;64019;48.312;14.226;2023-09-08T14:40:27;26.00;97.40
75442;DHT22;64019;48.312;14.226;2023-09-08T14:42:52;26.00;97.90
75442;DHT22;64019;48.312;14.226;2023-09-08T14:45:18;26.00;99.40
75442;DHT22;64019;48.312;14.226;2023-09-08T14:47:43;26.00;99.90
75442;DHT22;64019;48.312;14.226;2023-09-08T14:50:09;26.00;99.90
75442;DHT22;64019;48.312;14.226;2023-09-08T14:52:35;26.00;99.90
75442;DHT22;64019;48.312;14.226;2023-09-08T14:55:01;26.00;99.90
75442;DHT22;64019;48.312;14.226;2023-09-08T14:57:26;26.00;99.80
75442;DHT22;64019;48.312;14.226;2023-09-08T14:59:52;26.00;99.10
75442;DHT22;64019;48.312;14.226;2023-09-08T15:02:21;26.00;99.90
75442;DHT22;64019;48.312;14.226;2023-09-08T15:04:48;26.00;99.90
75442;DHT22;64019;48.312;14.226;2023-09-08T15:07:13;26.00;99.90
75442;DHT22;64019;48.312;14.226;2023-09-08T15:09:39;26.00;99.90
75442;DHT22;64019;48.312;14.226;2023-09-08T15:12:21;26.00;99.90
75442;DHT22;64019;48.312;14.226;2023-09-08T15:15:27;26.00;99.90
75442;DHT22;64019;48.312;14.226;2023-09-08T15:17:58;25.90;99.90
75442;DHT22;64019;48.312;14.226;2023-09-08T15:20:35;25.90;99.90
75442;DHT22;64019;48.312;14.226;2023-09-08T15:23:10;25.80;99.90
75442;DHT22;64019;48.312;14.226;2023-09-08T15:25:40;25.80;99.90
75442;DHT22;64019;48.312;14.226;2023-09-08T15:28:07;25.70;99.90
75442;DHT22;64019;48.312;14.226;2023-09-08T15:30:33;25.70;99.90
75442;DHT22;64019;48.312;14.226;2023-09-08T15:33:03;25.60;99.90
75442;DHT22;64019;48.312;14.226;2023-09-08T15:35:31;25.50;99.90
75442;DHT22;64019;48.312;14.226;2023-09-08T15:37:56;25.40;99.90
75442;DHT22;64019;48.312;14.226;2023-09-08T15:40:22;25.30;99.90
75442;DHT22;64019;48.312;14.226;2023-09-08T15:42:48;25.30;99.90
75442;DHT22;64019;48.312;14.226;2023-09-08T15:45:15;25.20;99.90
75442;DHT22;64019;48.312;14.226;2023-09-08T15:47:41;25.10;99.90
75442;DHT22;64019;48.312;14.226;2023-09-08T15:50:07;25.00;99.90
75442;DHT22;64019;48.312;14.226;2023-09-08T15:52:34;24.90;99.90
75442;DHT22;64019;48.312;14.226;2023-09-08T15:55:00;24.90;99.90
75442;DHT22;64019;48.312;14.226;2023-09-08T15:57:26;24.80;99.90
75442;DHT22;64019;48.312;14.226;2023-09-08T15:59:52;24.80;99.90
75442;DHT22;64019;48.312;14.226;2023-09-08T16:02:17;24.80;99.90
75442;DHT22;64019;48.312;14.226;2023-09-08T16:04:43;24.70;99.90
75442;DHT22;64019;48.312;14.226;2023-09-08T16:07:08;24.60;99.90
75442;DHT22;64019;48.312;14.226;2023-09-08T16:09:34;24.60;99.90